createdAt,value
2023-04-25T00:00:22.496Z,2.33
2023-04-25T00:02:49.761Z,2.43
2023-04-25T00:05:17.311Z,2.50
2023-04-25T00:07:44.267Z,2.27
2023-04-25T00:10:12.728Z,2.47
2023-04-25T00:12:40.180Z,2.10
2023-04-25T00:15:08.490Z,2.40
2023-04-25T00:17:35.899Z,2.13
2023-04-25T00:20:06.010Z,2.43
2023-04-25T00:22:35.629Z,2.00
2023-04-25T00:25:02.651Z,2.47
2023-04-25T00:27:29.383Z,2.00
2023-04-25T00:29:56.172Z,2.40
2023-04-25T00:32:22.970Z,2.53
2023-04-25T00:34:49.870Z,2.47
2023-04-25T00:37:16.823Z,2.40
2023-04-25T00:39:43.654Z,2.10
2023-04-25T00:42:12.337Z,2.20
2023-04-25T00:44:43.294Z,2.47
2023-04-25T00:47:11.747Z,2.20
2023-04-25T00:49:38.510Z,2.47
2023-04-25T00:52:05.800Z,2.40
2023-04-25T00:54:32.864Z,2.27
2023-04-25T00:57:01.802Z,2.90
2023-04-25T00:59:30.913Z,2.90
2023-04-25T01:01:59.160Z,2.93
2023-04-25T01:04:28.219Z,2.80
2023-04-25T01:06:55.376Z,2.83
2023-04-25T01:09:23.019Z,3.03
2023-04-25T01:11:50.700Z,2.63
2023-04-25T01:14:17.845Z,2.80
2023-04-25T01:16:45.830Z,3.10
2023-04-25T01:19:13.261Z,2.83
2023-04-25T01:21:41.127Z,2.63
2023-04-25T01:24:08.184Z,3.03
2023-04-25T01:26:39.456Z,3.10
2023-04-25T01:29:07.565Z,2.60
2023-04-25T01:31:36.713Z,3.10
2023-04-25T01:34:03.688Z,2.70
2023-04-25T01:36:31.442Z,3.03
2023-04-25T01:38:58.354Z,2.80
2023-04-25T01:41:25.742Z,3.10
2023-04-25T01:43:53.011Z,3.37
2023-04-25T01:46:20.085Z,2.90
2023-04-25T01:48:47.167Z,3.17
2023-04-25T01:51:14.456Z,2.60
2023-04-25T01:53:41.909Z,3.00
2023-04-25T01:56:08.845Z,2.90
2023-04-25T01:58:36.549Z,3.27
2023-04-25T02:01:09.218Z,3.07
2023-04-25T02:03:44.124Z,2.97
2023-04-25T02:06:20.255Z,2.83
2023-04-25T02:08:48.583Z,2.73
2023-04-25T02:11:16.942Z,2.73
2023-04-25T02:14:04.003Z,3.00
2023-04-25T02:16:53.773Z,2.50
2023-04-25T02:19:20.737Z,3.17
2023-04-25T02:21:47.906Z,2.83
2023-04-25T02:24:14.742Z,2.97
2023-04-25T02:26:41.523Z,2.60
2023-04-25T02:29:10.061Z,3.20
2023-04-25T02:31:36.912Z,2.73
2023-04-25T02:34:03.984Z,3.63
2023-04-25T02:36:33.289Z,3.30
2023-04-25T02:39:01.217Z,2.93
2023-04-25T02:41:28.520Z,3.00
2023-04-25T02:43:56.755Z,2.77
2023-04-25T02:46:37.789Z,3.00
2023-04-25T02:49:06.717Z,3.13
2023-04-25T02:51:34.879Z,3.37
2023-04-25T02:54:01.741Z,3.00
2023-04-25T02:56:28.746Z,2.90
2023-04-25T02:58:56.721Z,3.27
2023-04-25T03:01:24.083Z,3.07
2023-04-25T03:03:51.499Z,2.90
2023-04-25T03:06:18.927Z,2.53
2023-04-25T03:08:46.210Z,3.23
2023-04-25T03:11:13.547Z,3.20
2023-04-25T03:13:43.338Z,3.03
2023-04-25T03:16:11.953Z,3.30
2023-04-25T03:18:39.416Z,3.30
2023-04-25T03:21:06.877Z,3.23
2023-04-25T03:23:34.711Z,3.50
2023-04-25T03:26:01.925Z,3.23
2023-04-25T03:28:29.987Z,3.43
2023-04-25T03:30:58.067Z,2.90
2023-04-25T03:33:25.590Z,3.67
2023-04-25T03:35:53.929Z,3.43
2023-04-25T03:38:21.442Z,3.07
2023-04-25T03:40:48.816Z,3.17
2023-04-25T03:43:23.414Z,3.40
2023-04-25T03:45:56.646Z,3.50
2023-04-25T03:48:26.841Z,3.47
2023-04-25T03:50:56.344Z,3.40
2023-04-25T03:53:24.343Z,3.63
2023-04-25T03:56:17.440Z,3.37
2023-04-25T03:58:47.386Z,3.07
2023-04-25T04:01:16.910Z,3.43
2023-04-25T04:03:44.896Z,3.30
2023-04-25T04:06:14.065Z,3.60
2023-04-25T04:08:43.830Z,3.97
2023-04-25T04:11:12.209Z,3.40
2023-04-25T04:13:39.570Z,3.80
2023-04-25T04:16:07.992Z,3.77
2023-04-25T04:18:35.699Z,3.90
2023-04-25T04:21:03.007Z,3.40
2023-04-25T04:23:33.292Z,3.17
2023-04-25T04:26:01.732Z,4.03
2023-04-25T04:28:39.898Z,3.80
2023-04-25T04:31:20.513Z,3.70
2023-04-25T04:33:48.444Z,3.70
2023-04-25T04:36:16.930Z,3.63
2023-04-25T04:38:44.441Z,3.43
2023-04-25T04:41:20.603Z,3.50
2023-04-25T04:43:57.044Z,4.27
2023-04-25T04:46:53.814Z,3.53
2023-04-25T04:49:41.589Z,3.60
2023-04-25T04:52:30.962Z,4.03
2023-04-25T04:55:20.954Z,3.80
2023-04-25T04:58:11.125Z,3.63
2023-04-25T05:00:53.685Z,3.93
2023-04-25T05:03:39.709Z,4.00
2023-04-25T05:06:35.624Z,3.60
2023-04-25T05:09:21.690Z,3.47
2023-04-25T05:12:04.069Z,4.00
2023-04-25T05:14:51.264Z,3.37
2023-04-25T05:17:30.308Z,3.83
2023-04-25T05:20:23.467Z,3.93
2023-04-25T05:22:50.686Z,3.83
2023-04-25T05:25:31.212Z,3.90
2023-04-25T05:28:06.608Z,3.50
2023-04-25T05:30:52.773Z,3.80
2023-04-25T05:33:26.242Z,3.73
2023-04-25T05:35:54.434Z,4.13
2023-04-25T05:38:22.353Z,4.00
2023-04-25T05:41:05.012Z,3.70
2023-04-25T05:43:51.768Z,3.47
2023-04-25T05:46:38.332Z,3.77
2023-04-25T05:49:25.893Z,3.47
2023-04-25T05:52:28.799Z,3.63
2023-04-25T05:55:06.744Z,3.67
2023-04-25T05:57:33.996Z,3.70
2023-04-25T06:00:01.472Z,3.90
2023-04-25T06:02:48.812Z,3.80
2023-04-25T06:05:16.487Z,4.00
2023-04-25T06:07:44.636Z,3.33
2023-04-25T06:10:11.873Z,3.63
2023-04-25T06:12:39.562Z,3.30
2023-04-25T06:15:23.911Z,3.97
2023-04-25T06:17:54.377Z,3.40
2023-04-25T06:20:24.243Z,3.80
2023-04-25T06:22:52.955Z,3.63
2023-04-25T06:25:22.687Z,4.07
2023-04-25T06:27:50.171Z,3.67
2023-04-25T06:30:23.281Z,3.63
2023-04-25T06:32:53.973Z,3.73
2023-04-25T06:35:26.381Z,4.10
2023-04-25T06:37:54.406Z,3.90
2023-04-25T06:40:24.058Z,3.47
2023-04-25T06:42:51.394Z,4.37
2023-04-25T06:45:37.353Z,3.60
2023-04-25T06:48:04.833Z,4.00
2023-04-25T06:50:34.520Z,3.50
2023-04-25T06:53:06.076Z,3.40
2023-04-25T06:55:33.422Z,3.33
2023-04-25T06:58:20.888Z,3.70
2023-04-25T07:01:08.034Z,3.20
2023-04-25T07:03:36.336Z,3.30
2023-04-25T07:06:08.556Z,3.73
2023-04-25T07:08:36.141Z,3.43
2023-04-25T07:11:03.716Z,3.80
2023-04-25T07:13:31.062Z,3.83
2023-04-25T07:15:59.018Z,3.50
2023-04-25T07:18:28.278Z,3.80
2023-04-25T07:20:55.755Z,3.33
2023-04-25T07:23:23.852Z,3.17
2023-04-25T07:25:51.662Z,3.17
2023-04-25T07:28:22.322Z,3.30
2023-04-25T07:30:51.726Z,3.03
2023-04-25T07:33:21.234Z,3.13
2023-04-25T07:35:48.551Z,3.20
2023-04-25T07:38:15.861Z,3.47
2023-04-25T07:40:43.110Z,3.00
2023-04-25T07:43:15.668Z,3.23
2023-04-25T07:45:59.169Z,3.93
2023-04-25T07:48:29.784Z,3.63
2023-04-25T07:50:57.528Z,3.67
2023-04-25T07:53:24.913Z,3.50
2023-04-25T07:55:57.049Z,3.13
2023-04-25T07:58:24.229Z,3.20
2023-04-25T08:00:55.820Z,3.10
2023-04-25T08:03:46.135Z,2.90
2023-04-25T08:06:23.472Z,2.90
2023-04-25T08:09:00.795Z,3.13
2023-04-25T08:11:35.096Z,2.93
2023-04-25T08:14:02.980Z,2.40
2023-04-25T08:16:31.481Z,2.67
2023-04-25T08:18:58.906Z,2.37
2023-04-25T08:21:27.829Z,2.80
2023-04-25T08:23:58.531Z,2.37
2023-04-25T08:26:30.784Z,2.50
2023-04-25T08:28:59.201Z,2.47
2023-04-25T08:31:26.815Z,2.33
2023-04-25T08:34:00.149Z,2.50
2023-04-25T08:36:39.090Z,2.30
2023-04-25T08:39:18.395Z,2.17
2023-04-25T08:42:03.028Z,2.17
2023-04-25T08:44:31.253Z,2.10
2023-04-25T08:46:58.583Z,2.10
2023-04-25T08:49:29.934Z,2.27
2023-04-25T08:51:59.592Z,2.60
2023-04-25T08:54:35.403Z,2.90
2023-04-25T08:57:05.787Z,2.13
2023-04-25T08:59:33.979Z,2.40
2023-04-25T09:02:03.057Z,2.60
2023-04-25T09:04:33.123Z,2.83
2023-04-25T09:07:00.493Z,2.93
2023-04-25T09:09:28.115Z,2.53
2023-04-25T09:11:56.558Z,2.90
2023-04-25T09:14:29.048Z,2.63
2023-04-25T09:17:19.621Z,2.77
2023-04-25T09:19:52.381Z,2.83
2023-04-25T09:22:24.780Z,3.30
2023-04-25T09:24:52.276Z,3.33
2023-04-25T09:27:27.749Z,3.33
2023-04-25T09:30:12.583Z,3.10
2023-04-25T09:32:52.600Z,3.47
2023-04-25T09:35:29.644Z,3.07
2023-04-25T09:38:00.261Z,3.00
2023-04-25T09:40:50.897Z,2.60
2023-04-25T09:43:26.579Z,3.00
2023-04-25T09:45:59.067Z,3.50
2023-04-25T09:48:30.225Z,3.73
2023-04-25T09:51:07.916Z,3.47
2023-04-25T09:53:37.475Z,3.87
2023-04-25T09:56:15.917Z,3.70
2023-04-25T09:58:43.591Z,3.90
2023-04-25T10:01:12.655Z,3.17
2023-04-25T10:03:58.451Z,3.67
2023-04-25T10:06:40.274Z,4.10
2023-04-25T10:09:08.850Z,4.70
2023-04-25T10:11:37.732Z,4.27
2023-04-25T10:14:05.039Z,3.87
2023-04-25T10:16:32.377Z,3.20
2023-04-25T10:18:59.880Z,3.30
2023-04-25T10:21:27.959Z,3.47
2023-04-25T10:23:55.575Z,3.80
2023-04-25T10:26:23.128Z,3.20
2023-04-25T10:28:57.904Z,2.77
2023-04-25T10:31:25.262Z,2.87
2023-04-25T10:33:52.849Z,3.10
2023-04-25T10:36:22.328Z,3.53
2023-04-25T10:38:53.572Z,3.47
2023-04-25T10:41:21.449Z,3.03
2023-04-25T10:43:49.747Z,3.33
2023-04-25T10:46:24.959Z,3.07
2023-04-25T10:48:53.207Z,3.23
2023-04-25T10:51:20.420Z,3.40
2023-04-25T10:53:49.049Z,3.00
2023-04-25T10:56:21.370Z,2.70
2023-04-25T10:58:51.185Z,3.27
2023-04-25T11:01:23.335Z,3.63
2023-04-25T11:03:51.643Z,4.03
2023-04-25T11:06:22.520Z,3.10
2023-04-25T11:08:51.763Z,3.40
2023-04-25T11:11:19.818Z,3.53
2023-04-25T11:13:53.241Z,4.20
2023-04-25T11:16:27.416Z,3.90
2023-04-25T11:18:58.789Z,3.73
2023-04-25T11:21:29.525Z,3.40
2023-04-25T11:24:03.800Z,3.60
2023-04-25T11:26:31.881Z,3.90
2023-04-25T11:29:04.106Z,3.60
2023-04-25T11:31:31.477Z,3.60
2023-04-25T11:33:59.200Z,3.10
2023-04-25T11:36:27.004Z,2.97
2023-04-25T11:38:55.028Z,2.03
2023-04-25T11:41:23.250Z,2.50
2023-04-25T11:43:53.976Z,2.53
2023-04-25T11:46:22.047Z,2.50
2023-04-25T11:48:51.716Z,2.20
2023-04-25T11:51:20.361Z,2.27
2023-04-25T11:53:47.664Z,1.80
2023-04-25T11:56:14.986Z,1.90
2023-04-25T11:58:58.734Z,2.43
2023-04-25T12:01:33.624Z,1.83
2023-04-25T12:04:19.885Z,1.60
2023-04-25T12:06:48.904Z,1.70
2023-04-25T12:09:18.849Z,1.87
2023-04-25T12:11:59.947Z,1.80
2023-04-25T12:14:28.662Z,2.13
2023-04-25T12:16:59.856Z,2.00
2023-04-25T12:19:27.347Z,1.90
2023-04-25T12:21:58.825Z,2.00
2023-04-25T12:24:28.344Z,2.60
2023-04-25T12:26:55.906Z,1.70
2023-04-25T12:29:29.563Z,2.27
2023-04-25T12:32:00.867Z,2.00
2023-04-25T12:34:28.303Z,2.00
2023-04-25T12:36:55.798Z,2.00
2023-04-25T12:39:24.214Z,2.60
2023-04-25T12:41:51.815Z,2.20
2023-04-25T12:44:19.127Z,2.20
2023-04-25T12:46:46.604Z,2.70
2023-04-25T12:51:44.581Z,2.40
2023-04-25T12:54:12.093Z,2.67
2023-04-25T12:56:39.534Z,2.50
2023-04-25T12:59:06.721Z,2.87
2023-04-25T13:01:35.719Z,2.60
2023-04-25T13:04:04.129Z,2.20
2023-04-25T13:06:32.119Z,2.73
2023-04-25T13:08:59.483Z,3.07
2023-04-25T13:11:26.838Z,2.90
2023-04-25T13:13:54.605Z,2.83
2023-04-25T13:16:22.501Z,2.87
2023-04-25T13:18:50.057Z,2.43
2023-04-25T13:21:17.376Z,2.70
2023-04-25T13:23:45.623Z,3.30
2023-04-25T13:26:12.874Z,2.63
2023-04-25T13:28:44.807Z,3.00
2023-04-25T13:31:12.466Z,2.90
2023-04-25T13:33:40.733Z,2.80
2023-04-25T13:36:08.170Z,3.53
2023-04-25T13:38:35.391Z,2.70
2023-04-25T13:41:04.928Z,3.00
2023-04-25T13:43:34.870Z,3.00
2023-04-25T13:46:02.156Z,2.60
2023-04-25T13:48:29.382Z,2.97
2023-04-25T13:50:56.844Z,2.73
2023-04-25T13:53:25.656Z,2.40
2023-04-25T13:55:52.864Z,1.97
2023-04-25T13:58:21.400Z,2.40
2023-04-25T14:00:48.723Z,2.63
2023-04-25T14:03:17.417Z,2.70
2023-04-25T14:05:45.054Z,2.67
2023-04-25T14:08:12.618Z,2.93
2023-04-25T14:10:39.878Z,2.50
2023-04-25T14:13:09.549Z,2.73
2023-04-25T14:15:38.630Z,2.90
2023-04-25T14:18:06.514Z,2.60
2023-04-25T14:20:34.177Z,2.87
2023-04-25T14:23:01.354Z,3.03
2023-04-25T14:25:29.356Z,2.77
2023-04-25T14:27:56.636Z,2.80
2023-04-25T14:30:23.964Z,2.40
2023-04-25T14:32:51.706Z,3.17
2023-04-25T14:35:18.978Z,2.47
2023-04-25T14:37:46.202Z,2.63
2023-04-25T14:40:14.405Z,3.10
2023-04-25T14:42:41.944Z,2.67
2023-04-25T14:45:10.017Z,3.00
2023-04-25T14:47:40.476Z,2.57
2023-04-25T14:50:09.542Z,2.70
2023-04-25T14:52:37.205Z,3.10
2023-04-25T14:55:08.357Z,2.83
2023-04-25T14:57:36.326Z,3.17
2023-04-25T15:00:06.015Z,2.40
2023-04-25T15:02:33.522Z,2.80
2023-04-25T15:05:03.956Z,2.20
2023-04-25T15:07:31.546Z,2.37
2023-04-25T15:09:58.800Z,2.77
2023-04-25T15:12:27.221Z,2.97
2023-04-25T15:14:54.396Z,3.00
2023-04-25T15:17:22.295Z,2.40
2023-04-25T15:19:49.471Z,2.33
2023-04-25T15:22:17.958Z,1.90
2023-04-25T15:24:45.519Z,2.63
2023-04-25T15:27:13.715Z,1.83
2023-04-25T15:29:41.251Z,2.10
2023-04-25T15:32:08.681Z,1.90
2023-04-25T15:34:36.528Z,2.40
2023-04-25T15:37:04.060Z,1.70
2023-04-25T15:39:31.717Z,2.50
2023-04-25T15:41:59.190Z,2.10
2023-04-25T15:44:26.474Z,1.50
2023-04-25T15:46:55.160Z,1.60
2023-04-25T15:49:22.894Z,1.90
2023-04-25T15:51:50.304Z,1.50
2023-04-25T15:54:18.715Z,1.90
2023-04-25T15:56:45.978Z,1.87
2023-04-25T15:59:14.358Z,1.70
2023-04-25T16:01:42.752Z,1.73
2023-04-25T16:04:10.307Z,1.67
2023-04-25T16:06:38.769Z,1.67
2023-04-25T16:09:06.585Z,2.23
2023-04-25T16:11:33.770Z,2.23
2023-04-25T16:14:00.993Z,1.50
2023-04-25T16:16:28.470Z,2.33
2023-04-25T16:18:55.767Z,1.70
2023-04-25T16:21:23.006Z,1.67
2023-04-25T16:23:50.412Z,1.83
2023-04-25T16:26:18.015Z,2.47
2023-04-25T16:28:45.278Z,4.83
2023-04-25T16:31:12.540Z,2.07
2023-04-25T16:33:40.146Z,1.60
2023-04-25T16:36:09.996Z,2.10
2023-04-25T16:38:39.612Z,2.00
2023-04-25T16:41:07.552Z,2.00
2023-04-25T16:43:34.870Z,2.17
2023-04-25T16:46:02.043Z,1.90
2023-04-25T16:48:29.370Z,1.53
2023-04-25T16:50:56.743Z,1.60
2023-04-25T16:53:24.106Z,1.67
2023-04-25T16:55:51.401Z,1.70
2023-04-25T16:58:18.649Z,1.47
2023-04-25T17:00:47.140Z,1.73
2023-04-25T17:03:15.966Z,1.70
2023-04-25T17:05:43.427Z,1.50
2023-04-25T17:08:10.771Z,1.50
2023-04-25T17:10:38.017Z,1.70
2023-04-25T17:13:05.798Z,1.50
2023-04-25T17:15:34.372Z,1.87
2023-04-25T17:18:02.083Z,1.53
2023-04-25T17:20:29.288Z,1.63
2023-04-25T17:22:57.566Z,1.93
2023-04-25T17:25:24.829Z,1.67
2023-04-25T17:27:52.107Z,1.70
2023-04-25T17:30:19.393Z,1.60
2023-04-25T17:32:46.650Z,1.80
2023-04-25T17:35:15.647Z,1.50
2023-04-25T17:37:43.765Z,1.77
2023-04-25T17:40:12.170Z,1.70
2023-04-25T17:42:40.540Z,1.70
2023-04-25T17:45:08.127Z,1.63
2023-04-25T17:47:35.611Z,1.80
2023-04-25T17:50:03.261Z,1.50
2023-04-25T17:52:30.624Z,1.80
2023-04-25T17:54:57.865Z,2.00
2023-04-25T17:57:25.369Z,1.70
2023-04-25T17:59:52.791Z,2.00
2023-04-25T18:02:20.186Z,1.90
2023-04-25T18:04:47.697Z,2.00
2023-04-25T18:07:14.968Z,1.50
2023-04-25T18:09:42.888Z,1.80
2023-04-25T18:12:10.085Z,1.77
2023-04-25T18:14:37.339Z,1.53
2023-04-25T18:17:07.029Z,1.80
2023-04-25T18:19:35.071Z,1.50
2023-04-25T18:22:02.333Z,2.60
2023-04-25T18:24:29.782Z,2.83
2023-04-25T18:27:00.800Z,2.03
2023-04-25T18:29:33.652Z,2.00
2023-04-25T18:32:01.724Z,2.00
2023-04-25T18:34:29.119Z,1.60
2023-04-25T18:36:57.767Z,1.73
2023-04-25T18:39:26.190Z,2.47
2023-04-25T18:42:00.021Z,1.90
2023-04-25T18:44:32.136Z,1.50
2023-04-25T18:46:59.340Z,1.90
2023-04-25T18:49:26.541Z,1.97
2023-04-25T18:51:56.090Z,1.60
2023-04-25T18:54:23.410Z,1.83
2023-04-25T18:56:51.222Z,1.90
2023-04-25T18:59:18.620Z,1.90
2023-04-25T19:01:45.960Z,2.00
2023-04-25T19:04:13.440Z,1.77
2023-04-25T19:06:41.082Z,1.70
2023-04-25T19:09:10.104Z,2.17
2023-04-25T19:11:37.390Z,2.30
2023-04-25T19:14:04.606Z,2.07
2023-04-25T19:16:38.564Z,1.57
2023-04-25T19:19:07.215Z,1.77
2023-04-25T19:21:34.595Z,1.67
2023-04-25T19:24:02.754Z,1.67
2023-04-25T19:26:30.255Z,1.80
2023-04-25T19:29:08.070Z,1.73
2023-04-25T19:31:38.865Z,1.70
2023-04-25T19:34:06.996Z,1.50
2023-04-25T19:36:34.621Z,1.90
2023-04-25T19:39:04.813Z,2.10
2023-04-25T19:41:33.297Z,1.67
2023-04-25T19:44:01.230Z,1.73
2023-04-25T19:46:29.731Z,1.70
2023-04-25T19:48:59.039Z,1.80
2023-04-25T19:51:30.659Z,1.83
2023-04-25T19:53:57.938Z,1.77
2023-04-25T19:56:26.269Z,1.40
2023-04-25T19:58:53.854Z,1.73
2023-04-25T20:01:24.175Z,1.53
2023-04-25T20:03:52.050Z,3.47
2023-04-25T20:06:19.718Z,4.00
2023-04-25T20:08:47.368Z,1.80
2023-04-25T20:11:15.085Z,2.13
2023-04-25T20:13:42.543Z,1.63
2023-04-25T20:16:09.926Z,2.20
2023-04-25T20:18:37.169Z,1.57
2023-04-25T20:21:04.418Z,1.77
2023-04-25T20:23:31.646Z,1.77
2023-04-25T20:25:59.043Z,1.90
2023-04-25T20:28:27.468Z,1.77
2023-04-25T20:30:54.841Z,1.73
2023-04-25T20:33:22.276Z,1.60
2023-04-25T20:35:49.626Z,1.60
2023-04-25T20:38:17.134Z,1.70
2023-04-25T20:40:44.411Z,1.50
2023-04-25T20:43:11.795Z,1.43
2023-04-25T20:45:39.677Z,1.53
2023-04-25T20:48:07.155Z,2.00
2023-04-25T20:50:36.008Z,2.07
2023-04-25T20:53:03.730Z,1.97
2023-04-25T20:55:30.984Z,1.30
2023-04-25T20:57:58.679Z,1.63
2023-04-25T21:00:29.287Z,1.30
2023-04-25T21:02:57.698Z,1.47
2023-04-25T21:05:25.436Z,1.67
2023-04-25T21:07:52.674Z,1.80
2023-04-25T21:10:19.976Z,1.43
2023-04-25T21:12:51.667Z,1.60
2023-04-25T21:15:22.305Z,1.40
2023-04-25T21:17:50.575Z,1.73
2023-04-25T21:20:18.664Z,1.50
2023-04-25T21:22:50.392Z,1.47
2023-04-25T21:25:21.171Z,1.50
2023-04-25T21:27:49.661Z,1.53
2023-04-25T21:30:20.510Z,1.40
2023-04-25T21:32:53.277Z,1.40
2023-04-25T21:35:21.331Z,1.43
2023-04-25T21:37:49.196Z,1.40
2023-04-25T21:40:16.537Z,1.30
2023-04-25T21:42:45.780Z,1.37
2023-04-25T21:45:13.102Z,1.70
2023-04-25T21:47:40.665Z,1.30
2023-04-25T21:50:08.285Z,1.50
2023-04-25T21:52:38.964Z,1.30
2023-04-25T21:55:06.515Z,1.50
2023-04-25T21:57:33.761Z,1.40
2023-04-25T22:00:01.143Z,1.40
2023-04-25T22:03:00.542Z,1.70
2023-04-25T22:05:38.092Z,1.30
2023-04-25T22:08:05.423Z,1.60
2023-04-25T22:10:33.486Z,1.57
2023-04-25T22:13:00.635Z,1.77
2023-04-25T22:15:29.485Z,1.40
2023-04-25T22:17:57.675Z,1.30
2023-04-25T22:20:28.062Z,1.47
2023-04-25T22:22:56.294Z,1.37
2023-04-25T22:25:23.951Z,1.40
2023-04-25T22:27:51.667Z,1.40
2023-04-25T22:30:19.526Z,1.33
2023-04-25T22:32:47.056Z,1.67
2023-04-25T22:35:14.257Z,1.40
2023-04-25T22:37:41.901Z,1.23
2023-04-25T22:40:09.500Z,1.50
2023-04-25T22:42:44.209Z,1.30
2023-04-25T22:45:14.958Z,1.60
2023-04-25T22:47:42.341Z,1.50
2023-04-25T22:50:13.903Z,1.50
2023-04-25T22:52:42.540Z,1.47
2023-04-25T22:55:11.849Z,1.67
2023-04-25T22:57:39.384Z,1.67
2023-04-25T23:00:10.775Z,1.60
2023-04-25T23:02:38.362Z,1.53
2023-04-25T23:05:07.272Z,1.50
2023-04-25T23:07:34.909Z,1.60
2023-04-25T23:10:02.175Z,1.60
2023-04-25T23:12:29.438Z,1.47
2023-04-25T23:14:57.260Z,1.50
2023-04-25T23:17:24.493Z,1.53
2023-04-25T23:19:51.685Z,1.80
2023-04-25T23:22:19.273Z,1.63
2023-04-25T23:24:46.486Z,1.63
2023-04-25T23:27:13.693Z,1.80
2023-04-25T23:29:40.975Z,1.40
2023-04-25T23:32:08.963Z,1.60
2023-04-25T23:34:36.621Z,1.90
2023-04-25T23:37:04.445Z,1.77
2023-04-25T23:39:31.676Z,1.60
2023-04-25T23:41:58.964Z,1.70
2023-04-25T23:44:26.304Z,1.40
2023-04-25T23:46:53.489Z,1.77
2023-04-25T23:49:21.074Z,1.87
2023-04-25T23:51:48.446Z,1.47
2023-04-25T23:54:15.847Z,1.60
2023-04-25T23:56:43.110Z,1.70
2023-04-25T23:59:10.465Z,1.60
